map of DMN home
DMN - Airport
Location
City:  Deming, New Mexico, United States
Name:Deming Municipal Airport
ICAO:KDMN
IATA:DMN
FAA LID:DMN

Details
Type:Airport (Airfield)
Use:Public/Civil
Latitude:3215'45"N (32.262389)
Longitude:10743'08"W (-107.718999)
Datum:WGS 1984
Elevation:4314 ft (1315 m)
Variation:8.58E (WMM2015v2 magnetic declination)
-0.10 annual change
Runways:2
Longest:8018 × 75 ft (2444 × 23 m), paved

Time
Time Zone:UTC-7 (DST-6)
Local Time:

Weather
METAR:KDMN 041403Z AUTO 02004KT 1/4SM FG OVC002 02/01 A2997 RMK AO2 T00170011
TAF:KDMN 041139Z 0412/0512 VRB05KT P6SM BKN070 BKN150
FM041700 25020G30KT P6SM BKN070 BKN150
FM050300 26010KT P6SM SCT070 OVC220

Related Locations
Nearby:
Farthest:RRG: 11412 mi / 18365 km
Plaine Corail [Sir Gatan Duval Airport (Plaine Corail Airport)], Rodrigues Island, MU

Find:

   beyond  
but within

Other Information
Maps:
NOTAMs:
Links:
Sources:

  
  • flag of United States
  • flag of New Mexico
  

Sectional Chart

Flight Planning
at skyvector.com

Satellite Image

Google Maps Satellite view

 

Copyright © 2004-2019 Karl L. Swartz. All rights reserved.
The Great Circle Mapper name and logo are trademarks of the Great Circle Mapper.
All other trademarks mentioned herein belong to their respective owners.
Please see credits for attibutions and further copyright information.

  Follow gcmap on Facebook Follow gcmap on Twitter GCmap on LinkedIn

hCard Microformat

Geo Microformat